Time;durP1;ratioP1;P1;durP2;ratioP2;P2;SDS_P1;SDS_P2;PMS_P1;PMS_P2;Temp;Humidity;BMP_temperature;BMP_pressure;BME280_temperature;BME280_humidity;BME280_pressure;Samples;Min_cycle;Max_cycle;Signal;HPM_P1;HPM_P2
2021/11/20 00:02:28;;;;;;;17.73;14.52;;;;;;;9.22;52.08;100034.56;5054341;28;20490;-81
2021/11/20 00:04:54;;;;;;;21.13;15.20;;;;;;;9.11;52.04;100012.94;5054152;28;20588;-81
2021/11/20 00:07:21;;;;;;;19.45;14.65;;;;;;;8.73;51.90;99958.88;5054172;28;20042;-81
2021/11/20 00:09:47;;;;;;;19.17;15.10;;;;;;;8.96;52.23;99988.16;5069528;28;20554;-81
2021/11/20 00:12:29;;;;;;;22.15;15.75;;;;;;;9.19;52.40;100026.97;5069498;28;20112;-82
2021/11/20 00:14:55;;;;;;;20.40;15.63;;;;;;;9.19;52.49;100034.03;5069493;28;20025;-82
2021/11/20 00:17:22;;;;;;;20.73;14.50;;;;;;;9.18;52.41;100027.13;5053927;28;20037;-82
2021/11/20 00:19:48;;;;;;;18.15;14.50;;;;;;;8.83;52.80;99967.50;5053956;28;20024;-81
2021/11/20 00:22:32;;;;;;;20.92;15.68;;;;;;;8.71;52.94;99951.13;5069317;28;20039;-82
2021/11/20 00:25:02;;;;;;;18.85;14.52;;;;;;;9.14;52.82;100018.72;5053856;28;20135;-81
2021/11/20 00:27:34;;;;;;;19.73;13.55;;;;;;;8.71;53.01;99958.22;5052644;28;20028;-83
2021/11/20 00:30:03;;;;;;;19.30;14.70;;;;;;;9.19;53.00;100012.97;5052566;28;20094;-83
2021/11/20 00:32:32;;;;;;;18.17;14.77;;;;;;;9.13;52.91;99995.16;5053786;28;20029;-82
2021/11/20 00:35:03;;;;;;;20.27;14.40;;;;;;;8.98;53.09;99980.94;5053829;28;20512;-82
2021/11/20 00:37:29;;;;;;;20.27;16.00;;;;;;;8.90;52.80;99973.78;5053710;28;20033;-82
2021/11/20 00:39:55;;;;;;;19.45;15.10;;;;;;;9.19;53.23;100015.59;5053767;28;20021;-82
2021/11/20 00:42:21;;;;;;;20.10;14.50;;;;;;;9.20;53.10;100014.63;5053694;28;20516;-81
2021/11/20 00:44:48;;;;;;;19.05;14.65;;;;;;;9.16;53.00;100011.47;5053612;28;20595;-82
2021/11/20 00:47:15;;;;;;;17.15;13.55;;;;;;;8.95;53.04;99989.97;5053748;28;20020;-81
2021/11/20 00:49:40;;;;;;;19.15;14.82;;;;;;;8.62;53.20;99936.28;5053286;28;20482;-81
2021/11/20 00:52:07;;;;;;;17.90;13.82;;;;;;;9.07;53.50;100012.41;5053453;28;20035;-80
2021/11/20 00:54:34;;;;;;;18.05;14.55;;;;;;;9.06;53.64;99996.78;5053554;28;20035;-82
2021/11/20 00:57:00;;;;;;;19.48;15.45;;;;;;;7.37;53.64;99751.63;5053296;28;20036;-81
2021/11/20 00:59:25;;;;;;;20.75;15.68;;;;;;;8.64;54.05;99936.13;5068027;28;20021;-81
2021/11/20 01:01:57;;;;;;;17.77;14.57;;;;;;;8.97;53.88;99998.53;5068912;28;20029;-82
2021/11/20 01:04:25;;;;;;;19.98;14.05;;;;;;;8.91;54.14;99989.41;5052162;28;20025;-82
2021/11/20 01:06:52;;;;;;;19.40;13.95;;;;;;;8.49;54.17;99927.97;5053175;28;20028;-82
2021/11/20 01:09:22;;;;;;;19.08;14.43;;;;;;;7.96;54.33;99844.72;5052929;28;20074;-81
2021/11/20 01:11:54;;;;;;;19.13;14.73;;;;;;;8.83;54.13;99984.09;5053195;28;20020;-82
2021/11/20 01:14:25;;;;;;;17.50;12.93;;;;;;;8.47;54.95;99945.72;5053115;28;20099;-82
2021/11/20 01:16:52;;;;;;;19.10;13.55;;;;;;;8.70;54.74;99967.91;5068369;28;20025;-82
2021/11/20 01:19:18;;;;;;;18.75;14.35;;;;;;;8.83;54.44;99985.91;5051513;28;20032;-82
2021/11/20 01:21:45;;;;;;;17.73;14.82;;;;;;;8.63;54.48;99937.09;5052688;28;20021;-82
2021/11/20 01:24:11;;;;;;;19.27;14.63;;;;;;;8.85;54.37;99971.63;5051698;28;20394;-81
2021/11/20 01:26:37;;;;;;;16.98;14.32;;;;;;;8.84;54.45;99979.66;5051492;28;20024;-82
2021/11/20 01:29:05;;;;;;;19.95;14.90;;;;;;;8.82;54.39;99968.47;5067882;28;20064;-83
2021/11/20 01:31:32;;;;;;;21.50;14.13;;;;;;;8.65;54.78;99938.59;5052530;28;20501;-82
2021/11/20 01:33:58;;;;;;;19.13;14.60;;;;;;;8.58;54.31;99919.97;5067799;28;20406;-81
2021/11/20 01:36:27;;;;;;;19.10;13.52;;;;;;;8.07;54.60;99846.25;5052297;28;20065;-82
2021/11/20 01:38:56;;;;;;;21.38;14.68;;;;;;;8.36;54.51;99893.34;5067873;28;20029;-82
2021/11/20 01:41:25;;;;;;;20.42;14.55;;;;;;;8.07;54.54;99836.56;5067835;28;20066;-82
2021/11/20 01:43:54;;;;;;;20.30;13.88;;;;;;;8.90;54.51;99965.88;5052911;28;20112;-82
2021/11/20 01:46:27;;;;;;;20.77;14.50;;;;;;;8.74;54.87;99945.56;5052403;28;20502;-82
2021/11/20 01:49:11;;;;;;;17.98;13.52;;;;;;;8.84;54.95;99948.06;5052318;28;20017;-83
2021/11/20 01:51:47;;;;;;;19.48;14.52;;;;;;;8.38;54.47;99870.34;5051075;28;20092;-81
2021/11/20 01:54:37;;;;;;;17.25;12.80;;;;;;;8.85;55.13;99950.56;5052239;28;20433;-82
2021/11/20 01:57:23;;;;;;;19.08;13.27;;;;;;;8.14;54.68;99840.22;5052064;28;20092;-83
2021/11/20 02:00:07;;;;;;;21.25;14.50;;;;;;;8.83;54.87;99955.16;5050947;28;20025;-81
2021/11/20 02:03:07;;;;;;;26.88;15.68;;;;;;;8.71;55.17;99951.13;5051961;28;20021;-81
2021/11/20 02:06:01;;;;;;;25.80;16.38;;;;;;;8.65;55.17;99957.03;5067119;28;20029;-82
2021/11/20 02:08:53;;;;;;;22.17;15.85;;;;;;;8.50;55.37;99940.16;5052095;28;20083;-81
2021/11/20 02:11:27;;;;;;;;;;;;;;;8.43;55.36;99950.47;5049773;28;20033;-82
2021/11/20 02:13:53;;;;;;;19.77;15.25;;;;;;;7.29;55.63;99759.44;5051698;28;19908;-81
2021/11/20 02:16:28;;;;;;;25.17;16.70;;;;;;;8.43;55.34;99947.84;5051723;28;20482;-82
2021/11/20 02:18:57;;;;;;;25.52;16.80;;;;;;;8.23;55.29;99925.31;5051734;28;20032;-82
2021/11/20 02:21:35;;;;;;;21.90;15.25;;;;;;;8.40;55.69;99939.44;5067183;28;20021;-82
2021/11/20 02:24:00;;;;;;;21.25;15.63;;;;;;;8.39;55.95;99941.22;5050301;28;20025;-82
2021/11/20 02:26:26;;;;;;;26.27;16.95;;;;;;;8.39;55.26;99940.41;5051414;28;20025;-82
2021/11/20 02:28:52;;;;;;;24.83;15.80;;;;;;;8.27;55.88;99938.00;5052112;28;20028;-82
2021/11/20 02:31:18;;;;;;;23.52;16.90;;;;;;;8.36;55.35;99952.06;5067014;28;20017;-81
2021/11/20 02:33:46;;;;;;;24.30;18.60;;;;;;;8.14;55.92;99928.81;5051412;28;20024;-81
2021/11/20 02:36:19;;;;;;;24.65;17.17;;;;;;;8.32;55.93;99941.97;5051413;28;20025;-82
2021/11/20 02:39:17;;;;;;;24.75;17.45;;;;;;;8.28;55.94;99944.09;5050246;28;20070;-82
2021/11/20 02:41:47;;;;;;;25.38;16.15;;;;;;;8.28;56.42;99946.72;5049983;28;20131;-81
2021/11/20 02:44:14;;;;;;;27.05;18.33;;;;;;;8.26;56.20;99946.03;5051724;28;20121;-82
2021/11/20 02:46:44;;;;;;;24.42;18.08;;;;;;;7.70;56.31;99857.81;5066806;28;20121;-82
2021/11/20 02:49:11;;;;;;;36.85;23.63;;;;;;;7.48;55.91;99803.94;5066831;28;20025;-82
2021/11/20 02:51:53;;;;;;;41.30;26.35;;;;;;;8.26;56.34;99930.25;5051174;28;20028;-82
2021/11/20 02:54:23;;;;;;;32.80;20.73;;;;;;;8.23;56.26;99931.41;5051060;28;20074;-81
2021/11/20 02:56:57;;;;;;;23.90;17.65;;;;;;;8.22;56.86;99928.91;5049780;28;20091;-81
2021/11/20 02:59:24;;;;;;;30.88;20.05;;;;;;;8.24;56.44;99922.53;5066652;28;20033;-82
2021/11/20 03:01:51;;;;;;;33.80;21.23;;;;;;;7.39;56.54;99778.56;5051117;28;20021;-82
2021/11/20 03:04:20;;;;;;;29.27;21.35;;;;;;;8.18;56.81;99933.66;5051196;28;20043;-81
2021/11/20 03:06:47;;;;;;;27.38;19.10;;;;;;;7.71;56.87;99848.16;5051211;28;20078;-82
2021/11/20 03:09:13;;;;;;;27.30;19.33;;;;;;;7.90;56.71;99874.25;5051094;28;20029;-82
2021/11/20 03:11:41;;;;;;;29.75;20.42;;;;;;;8.14;57.36;99916.50;5050955;28;20036;-81
2021/11/20 03:14:09;;;;;;;30.20;21.25;;;;;;;8.14;57.12;99908.63;5051029;28;20035;-83
2021/11/20 03:16:38;;;;;;;29.40;19.27;;;;;;;8.18;57.38;99914.41;5049772;28;20033;-83
2021/11/20 03:19:04;;;;;;;29.55;21.70;;;;;;;7.84;57.07;99854.66;5049883;28;20033;-83
2021/11/20 03:21:32;;;;;;;28.48;19.60;;;;;;;8.15;56.98;99912.91;5051941;28;20028;-81
2021/11/20 03:24:01;;;;;;;19.60;14.02;;;;;;;8.21;57.43;99909.69;5053834;28;20417;-83
2021/11/20 03:26:27;;;;;;;18.48;12.50;;;;;;;7.40;58.29;99782.84;5054896;28;20096;-81
2021/11/20 03:28:53;;;;;;;17.13;13.32;;;;;;;8.11;57.95;99853.69;5055078;28;20029;-83
2021/11/20 03:31:19;;;;;;;13.68;10.77;;;;;;;8.17;57.98;99846.97;5054933;28;20028;-81
2021/11/20 03:33:45;;;;;;;13.95;9.82;;;;;;;8.66;57.69;99916.56;5055038;28;20021;-82
2021/11/20 03:36:12;;;;;;;14.23;10.00;;;;;;;8.60;57.45;99888.22;5070264;28;20139;-82
2021/11/20 03:38:38;;;;;;;17.20;11.27;;;;;;;8.48;57.64;99844.75;5054723;28;20048;-82
2021/11/20 03:41:04;;;;;;;14.48;10.73;;;;;;;8.23;57.54;99812.19;5054825;28;20025;-80
2021/11/20 03:43:31;;;;;;;15.20;10.40;;;;;;;8.15;57.48;99780.56;5054753;28;20559;-82
2021/11/20 03:45:56;;;;;;;13.77;9.95;;;;;;;7.53;57.12;99669.50;5054773;28;20029;-82
2021/11/20 03:48:22;;;;;;;15.45;11.27;;;;;;;8.98;57.25;99904.56;5054657;28;20486;-82
2021/11/20 03:50:48;;;;;;;13.20;10.52;;;;;;;9.02;57.39;99905.88;5054636;28;20025;-83
2021/11/20 03:53:14;;;;;;;20.83;14.63;;;;;;;8.07;57.33;99760.31;5054708;28;20115;-83
2021/11/20 03:55:43;;;;;;;15.70;12.43;;;;;;;9.05;57.28;99905.56;5054537;28;20052;-83
2021/11/20 03:58:10;;;;;;;21.77;15.93;;;;;;;9.05;57.56;99897.66;5054382;28;20025;-82
2021/11/20 04:00:40;;;;;;;20.35;14.98;;;;;;;9.05;57.58;99895.03;5069914;28;20087;-81
2021/11/20 04:03:06;;;;;;;27.90;18.58;;;;;;;8.97;57.28;99882.66;5054426;28;20024;-82
2021/11/20 04:05:33;;;;;;;22.15;15.45;;;;;;;8.75;57.14;99868.22;5054427;28;20100;-82
2021/11/20 04:07:59;;;;;;;26.67;18.15;;;;;;;8.43;57.46;99799.66;5054399;28;20127;-81
2021/11/20 04:10:26;;;;;;;20.60;15.57;;;;;;;9.05;57.90;99911.66;5054343;28;20036;-81
2021/11/20 04:12:52;;;;;;;18.52;13.52;;;;;;;9.08;57.40;99905.25;5052927;28;20035;-82
2021/11/20 04:15:22;;;;;;;17.65;14.02;;;;;;;7.38;57.37;99684.97;5052958;28;20104;-81
2021/11/20 04:17:48;;;;;;;20.80;15.52;;;;;;;8.69;57.64;99857.50;5069436;28;20080;-81
2021/11/20 04:20:18;;;;;;;28.33;19.65;;;;;;;8.69;57.43;99860.97;5052836;28;20048;-83
2021/11/20 04:22:45;;;;;;;22.52;16.05;;;;;;;8.70;57.73;99854.72;5054066;28;20032;-81
2021/11/20 04:25:13;;;;;;;21.77;15.68;;;;;;;8.44;57.61;99804.78;5054105;28;20025;-81
2021/11/20 04:27:39;;;;;;;16.80;13.45;;;;;;;8.76;57.76;99869.88;5069385;28;20028;-81
2021/11/20 04:30:07;;;;;;;21.42;14.82;;;;;;;8.95;57.75;99903.06;5069474;28;20033;-82
2021/11/20 04:32:32;;;;;;;16.30;13.32;;;;;;;8.72;57.72;99894.88;5053309;28;20437;-82
2021/11/20 04:34:58;;;;;;;20.05;15.10;;;;;;;8.23;57.53;99796.41;5052892;28;20029;-82
2021/11/20 04:37:23;;;;;;;17.15;12.65;;;;;;;8.56;57.97;99848.25;5053880;28;20147;-81
2021/11/20 04:39:49;;;;;;;16.50;12.73;;;;;;;8.32;57.89;99818.31;5054132;28;20029;-83
2021/11/20 04:42:15;;;;;;;19.95;12.77;;;;;;;8.64;57.58;99872.94;5069227;28;20013;-82
2021/11/20 04:44:41;;;;;;;16.92;12.88;;;;;;;8.58;57.86;99883.13;5069138;28;20031;-82
2021/11/20 04:47:06;;;;;;;15.10;12.00;;;;;;;8.84;57.58;99901.50;5068979;28;20115;-81
2021/11/20 04:49:32;;;;;;;16.50;12.30;;;;;;;8.74;57.74;99892.91;5053726;28;20033;-82
2021/11/20 04:51:57;;;;;;;19.80;14.57;;;;;;;8.55;58.08;99865.03;5068962;28;20032;-82
2021/11/20 04:54:23;;;;;;;19.60;14.57;;;;;;;7.94;58.03;99767.81;5069177;28;20060;-83
2021/11/20 04:56:48;;;;;;;18.48;14.52;;;;;;;8.66;57.97;99863.09;5068778;28;20409;-83
2021/11/20 04:59:14;;;;;;;18.98;14.93;;;;;;;8.78;57.88;99893.41;5053344;28;20029;-83
2021/11/20 05:01:40;;;;;;;17.98;14.55;;;;;;;8.79;57.58;99892.44;5068684;28;20025;-82
2021/11/20 05:04:06;;;;;;;20.38;13.73;;;;;;;9.13;57.73;99937.19;5053153;28;20025;-83
2021/11/20 05:06:33;;;;;;;19.95;13.75;;;;;;;8.45;57.83;99840.63;5052079;28;20433;-82
2021/11/20 05:08:59;;;;;;;20.55;15.07;;;;;;;8.75;57.55;99872.66;5053052;28;20055;-81
2021/11/20 05:11:31;;;;;;;21.75;16.90;;;;;;;8.84;57.73;99898.06;5052961;28;20051;-82
2021/11/20 05:13:57;;;;;;;24.85;19.15;;;;;;;8.83;57.78;99906.94;5068518;28;20024;-82
2021/11/20 05:16:24;;;;;;;23.73;18.10;;;;;;;9.09;57.99;99939.34;5053090;28;20033;-82
2021/11/20 05:18:50;;;;;;;29.08;21.08;;;;;;;8.90;57.81;99910.59;5052832;28;20021;-82
2021/11/20 05:21:17;;;;;;;30.13;22.08;;;;;;;8.99;57.50;99919.38;5052782;28;20029;-82
2021/11/20 05:23:44;;;;;;;35.50;25.30;;;;;;;8.86;57.63;99904.81;5052685;28;20131;-82
2021/11/20 05:26:12;;;;;;;29.42;20.23;;;;;;;9.08;58.16;99944.75;5052525;28;20108;-81
2021/11/20 05:28:39;;;;;;;30.25;19.63;;;;;;;8.79;58.10;99897.69;5052596;28;20039;-81
2021/11/20 05:31:05;;;;;;;27.02;19.92;;;;;;;9.08;57.81;99940.31;5051185;28;20021;-82
2021/11/20 05:33:35;;;;;;;29.40;19.40;;;;;;;9.09;57.97;99941.97;5067930;28;20017;-83
2021/11/20 05:36:01;;;;;;;25.88;18.67;;;;;;;9.07;58.10;99940.47;5051066;28;20039;-82
2021/11/20 05:38:27;;;;;;;26.75;18.38;;;;;;;8.30;58.35;99829.00;5051329;28;20416;-82
2021/11/20 05:40:53;;;;;;;24.70;19.27;;;;;;;8.96;58.53;99941.59;5052728;28;20044;-82
2021/11/20 05:43:20;;;;;;;26.65;18.13;;;;;;;9.03;58.85;99960.22;5052539;28;20032;-82
2021/11/20 05:45:57;;;;;;;23.63;19.00;;;;;;;9.03;58.50;99954.94;5051847;28;20033;-81
2021/11/20 05:48:22;;;;;;;28.80;21.55;;;;;;;8.25;58.73;99847.06;5052296;28;20021;-83
2021/11/20 05:50:49;;;;;;;27.33;19.83;;;;;;;8.51;58.51;99879.47;5067798;28;20505;-82
2021/11/20 05:53:21;;;;;;;26.27;19.15;;;;;;;8.26;58.59;99836.38;5051105;28;20036;-82
2021/11/20 05:55:49;;;;;;;25.63;19.52;;;;;;;8.71;58.50;99921.34;5052569;28;20094;-82
2021/11/20 05:58:15;;;;;;;23.75;18.52;;;;;;;9.14;58.60;99965.19;5052103;28;20033;-82
2021/11/20 06:00:43;;;;;;;24.95;19.75;;;;;;;9.17;58.55;99970.16;5052014;28;20031;-82
2021/11/20 06:03:10;;;;;;;28.75;20.67;;;;;;;8.86;58.49;99917.97;5050641;28;20025;-82
2021/11/20 06:05:38;;;;;;;31.33;22.58;;;;;;;9.29;58.34;99971.50;5050798;28;20021;-83
2021/11/20 06:08:04;;;;;;;28.90;22.00;;;;;;;8.62;58.62;99851.22;5052068;28;20025;-82
2021/11/20 06:10:30;;;;;;;32.83;22.80;;;;;;;9.40;58.35;99967.75;5067431;28;20418;-82
2021/11/20 06:12:56;;;;;;;39.08;25.80;;;;;;;9.33;58.34;99961.47;5052216;28;20051;-83
2021/11/20 06:15:22;;;;;;;42.95;29.33;;;;;;;9.01;58.67;99888.44;5051908;28;20505;-81
2021/11/20 06:17:47;;;;;;;48.28;31.30;;;;;;;9.14;58.69;99912.50;5051711;28;20478;-82
2021/11/20 06:20:13;;;;;;;45.22;31.25;;;;;;;9.46;59.08;99960.03;5067216;28;20098;-81
2021/11/20 06:22:39;;;;;;;42.97;30.95;;;;;;;8.89;59.05;99867.63;5051690;28;20131;-82
2021/11/20 06:25:07;;;;;;;40.47;30.27;;;;;;;9.50;59.21;99952.63;5051847;28;20017;-82
2021/11/20 06:27:32;;;;;;;39.42;27.23;;;;;;;9.26;59.24;99934.13;5051527;28;20032;-81
2021/11/20 06:30:00;;;;;;;37.50;27.50;;;;;;;9.16;59.27;99905.28;5067071;28;20485;-81
2021/11/20 06:32:26;;;;;;;40.42;27.85;;;;;;;9.29;59.47;99934.63;5051703;28;20587;-82
2021/11/20 06:34:51;;;;;;;40.00;28.27;;;;;;;9.17;59.73;99896.38;5051510;28;20083;-81
2021/11/20 06:37:18;;;;;;;66.57;37.22;;;;;;;9.54;59.69;99932.88;5051623;28;20544;-83
2021/11/20 06:39:43;;;;;;;58.28;36.13;;;;;;;9.00;59.54;99850.75;5051626;28;20025;-82
2021/11/20 06:42:09;;;;;;;52.80;33.03;;;;;;;9.32;59.83;99880.78;5051481;28;20408;-81
2021/11/20 06:44:34;;;;;;;57.95;34.58;;;;;;;9.71;60.02;99929.31;5066866;28;20021;-81
2021/11/20 06:47:00;;;;;;;44.65;30.33;;;;;;;9.53;59.75;99883.78;5050074;28;20100;-82
2021/11/20 06:49:26;;;;;;;45.80;30.38;;;;;;;9.34;60.15;99857.72;5066979;28;20485;-82
2021/11/20 06:51:52;;;;;;;45.70;31.17;;;;;;;9.43;59.88;99862.03;5051498;28;20074;-81
2021/11/20 06:54:17;;;;;;;43.58;30.85;;;;;;;9.22;60.28;99812.41;5063010;28;20033;-81
2021/11/20 06:56:52;;;;;;;45.03;30.70;;;;;;;9.92;60.78;99922.72;5062990;28;20108;-82
2021/11/20 07:01:51;;;;;;;47.53;31.25;;;;;;;9.96;60.63;99930.16;5047658;28;20489;-80
2021/11/20 07:04:23;;;;;;;54.80;35.70;;;;;;;9.83;60.58;99906.06;5034112;28;20495;-81
2021/11/20 07:06:57;;;;;;;51.63;35.50;;;;;;;9.99;60.99;99924.53;5038047;28;20898;-81
2021/11/20 07:09:23;;;;;;;48.13;33.50;;;;;;;9.84;60.86;99902.44;5034213;28;20029;-81
2021/11/20 07:11:50;;;;;;;50.22;34.33;;;;;;;10.09;60.52;99930.47;5030615;28;20025;-81
2021/11/20 07:14:16;;;;;;;49.72;32.22;;;;;;;10.05;61.00;99926.53;5029327;28;20121;-80
2021/11/20 07:16:43;;;;;;;44.33;29.52;;;;;;;9.40;60.57;99802.56;5038099;28;20100;-81
2021/11/20 07:19:10;;;;;;;48.42;32.28;;;;;;;10.25;60.83;99924.38;5030790;28;20498;-82
2021/11/20 07:21:36;;;;;;;40.70;29.35;;;;;;;9.89;60.65;99850.03;5047127;28;20468;-81
2021/11/20 07:24:06;;;;;;;41.97;29.88;;;;;;;10.35;60.58;99909.19;5049489;28;20023;-80
2021/11/20 07:26:33;;;;;;;23.38;17.60;;;;;;;10.40;60.30;99911.34;5052040;28;20033;-80
2021/11/20 07:28:59;;;;;;;26.00;19.55;;;;;;;9.81;60.79;99803.41;5048891;28;20028;-81
2021/11/20 07:31:24;;;;;;;19.35;14.05;;;;;;;9.93;60.33;99818.88;5038962;28;20104;-81
2021/11/20 07:33:50;;;;;;;18.55;15.10;;;;;;;10.25;60.40;99862.88;5030842;28;20550;-80
2021/11/20 07:36:16;;;;;;;22.10;16.73;;;;;;;10.67;60.57;99910.97;5028750;28;20418;-80
2021/11/20 07:38:55;;;;;;;21.10;15.55;;;;;;;10.76;60.12;99909.94;5036460;28;20036;-80
2021/11/20 07:41:24;;;;;;;24.65;17.17;;;;;;;10.88;59.91;99928.91;5043186;28;20435;-80
2021/11/20 07:43:49;;;;;;;34.47;25.63;;;;;;;10.62;59.68;99841.19;5040002;28;20029;-81
2021/11/20 07:46:16;;;;;;;17.33;13.85;;;;;;;10.76;59.81;99872.97;5030624;28;20647;-81
2021/11/20 07:48:42;;;;;;;19.15;13.73;;;;;;;10.97;59.57;99885.59;5061855;28;20013;-80
2021/11/20 07:51:10;;;;;;;20.40;16.30;;;;;;;10.01;58.92;99698.34;5035798;28;20032;-80
2021/11/20 07:53:36;;;;;;;17.90;13.60;;;;;;;10.96;59.05;99851.44;5042138;28;20031;-80
2021/11/20 07:56:02;;;;;;;26.55;16.88;;;;;;;11.53;59.07;99899.53;5029092;28;20025;-80
2021/11/20 07:58:27;;;;;;;13.13;10.80;;;;;;;11.23;58.40;99852.78;5030294;28;20048;-81
2021/11/20 08:00:54;;;;;;;16.08;11.60;;;;;;;11.59;58.82;99916.50;5030512;28;20499;-81
2021/11/20 08:03:20;;;;;;;14.77;11.25;;;;;;;11.59;58.43;99882.13;5030519;28;20021;-81
2021/11/20 08:05:48;;;;;;;14.48;11.68;;;;;;;11.44;57.97;99866.19;5030507;28;20429;-79
2021/11/20 08:08:14;;;;;;;16.25;11.77;;;;;;;11.31;57.97;99827.13;5032399;28;20072;-79
2021/11/20 08:10:40;;;;;;;14.23;11.73;;;;;;;11.85;57.89;99917.00;5034199;28;20485;-79
2021/11/20 08:13:06;;;;;;;14.02;12.43;;;;;;;11.93;57.89;99918.81;5035657;28;20408;-80
2021/11/20 08:15:33;;;;;;;13.60;10.18;;;;;;;11.59;57.73;99863.63;5039135;28;20033;-80
2021/11/20 08:17:59;;;;;;;14.63;11.25;;;;;;;11.91;57.87;99903.09;5040358;28;20112;-81
2021/11/20 08:20:29;;;;;;;12.80;10.75;;;;;;;11.14;57.80;99773.53;5048997;28;20175;-81
2021/11/20 08:22:54;;;;;;;13.32;10.73;;;;;;;12.07;57.90;99900.31;5033181;28;20083;-81
2021/11/20 08:25:23;;;;;;;16.15;11.93;;;;;;;11.39;57.52;99798.00;5033927;28;20021;-81
2021/11/20 08:27:49;;;;;;;16.23;12.05;;;;;;;12.13;57.54;99896.13;5033692;28;20018;-80
2021/11/20 08:30:17;;;;;;;16.52;12.65;;;;;;;12.03;57.08;99882.34;5034009;28;20017;-81
2021/11/20 08:32:46;;;;;;;14.57;11.13;;;;;;;11.85;57.98;99861.47;5032715;28;20033;-80
2021/11/20 08:35:13;;;;;;;14.77;9.95;;;;;;;11.78;57.46;99831.44;5033342;28;20533;-80
2021/11/20 08:37:39;;;;;;;12.27;10.13;;;;;;;12.29;57.46;99890.69;5033409;28;20029;-80
2021/11/20 08:40:08;;;;;;;12.23;9.93;;;;;;;12.38;57.46;99894.06;5032561;28;20036;-80
2021/11/20 08:42:35;;;;;;;17.58;13.18;;;;;;;12.14;57.20;99834.25;5033805;28;20021;-80
2021/11/20 08:45:03;;;;;;;14.77;11.90;;;;;;;12.21;56.89;99826.41;5034004;28;20014;-80
2021/11/20 08:47:29;;;;;;;12.43;10.55;;;;;;;12.62;56.83;99882.41;5033587;28;20029;-79
2021/11/20 08:49:54;;;;;;;14.20;10.70;;;;;;;12.67;56.67;99886.16;5033447;28;20032;-80
2021/11/20 08:52:20;;;;;;;14.77;11.15;;;;;;;12.60;57.10;99869.34;5033579;28;20033;-80
2021/11/20 08:54:45;;;;;;;13.75;11.73;;;;;;;11.28;56.55;99647.75;5033344;28;20351;-80
2021/11/20 08:57:11;;;;;;;16.30;12.00;;;;;;;12.80;56.75;99882.06;5033383;28;20009;-80
2021/11/20 08:59:38;;;;;;;13.82;10.43;;;;;;;12.89;57.02;99883.59;5033367;28;20156;-80
2021/11/20 09:02:15;;;;;;;17.70;11.77;;;;;;;12.96;56.38;99880.03;5033252;28;20029;-80
2021/11/20 09:04:45;;;;;;;13.20;10.27;;;;;;;13.03;56.68;99867.66;5033362;28;20639;-80
2021/11/20 09:07:27;;;;;;;12.25;10.57;;;;;;;12.80;56.49;99821.09;5033379;28;20108;-80
2021/11/20 09:10:08;;;;;;;14.30;10.82;;;;;;;13.12;56.20;99855.13;5031919;28;20506;-82
2021/11/20 09:12:51;;;;;;;11.45;8.93;;;;;;;13.00;55.74;99819.50;5031888;28;20083;-81
2021/11/20 09:15:29;;;;;;;12.18;9.20;;;;;;;13.34;55.60;99853.34;5033031;28;20510;-80
2021/11/20 09:17:54;;;;;;;10.93;9.07;;;;;;;13.38;55.26;99851.16;5031519;28;20589;-80
2021/11/20 09:20:20;;;;;;;17.38;10.00;;;;;;;13.42;55.24;99845.31;5032534;28;20032;-82
2021/11/20 09:22:46;;;;;;;12.05;8.60;;;;;;;13.44;54.98;99851.25;5032856;28;20269;-81
2021/11/20 09:25:12;;;;;;;10.15;9.00;;;;;;;12.87;54.65;99745.16;5031584;28;20104;-82
2021/11/20 09:27:39;;;;;;;10.80;9.70;;;;;;;13.51;54.71;99827.44;5032632;28;20017;-81
2021/11/20 09:30:08;;;;;;;15.23;10.48;;;;;;;13.54;54.97;99835.84;5032921;28;20021;-81
2021/11/20 09:32:34;;;;;;;11.63;9.63;;;;;;;13.25;54.86;99786.38;5033077;28;20021;-81
2021/11/20 09:34:59;;;;;;;12.75;10.00;;;;;;;13.02;54.67;99716.78;5032331;28;20029;-82
2021/11/20 09:37:25;;;;;;;13.82;9.32;;;;;;;13.11;54.86;99717.47;5046523;28;20064;-82
2021/11/20 09:39:50;;;;;;;11.73;9.27;;;;;;;13.60;54.60;99797.94;5049092;28;20032;-81
2021/11/20 09:42:48;;;;;;;15.73;10.38;;;;;;;13.89;54.17;99804.91;5052441;28;20079;-81
2021/11/20 09:45:23;;;;;;;15.80;11.20;;;;;;;13.86;53.95;99784.06;5049201;28;20048;-81
2021/11/20 09:47:52;;;;;;;13.43;10.07;;;;;;;14.22;53.59;99793.69;5052270;28;20391;-80
2021/11/20 09:50:31;;;;;;;12.82;11.15;;;;;;;13.91;53.23;99730.38;5052461;28;20029;-80
2021/11/20 09:52:58;;;;;;;14.95;10.68;;;;;;;14.04;53.35;99764.16;5052444;28;20090;-81
2021/11/20 09:55:28;;;;;;;15.45;11.70;;;;;;;14.31;53.16;99773.94;5050846;28;20044;-81
2021/11/20 09:58:01;;;;;;;11.93;9.43;;;;;;;13.73;52.86;99679.63;5052030;28;20033;-81
2021/11/20 10:00:47;;;;;;;14.13;10.60;;;;;;;14.29;52.96;99787.41;5052238;28;20036;-81
2021/11/20 10:03:31;;;;;;;12.77;10.18;;;;;;;14.32;52.88;99786.19;5052054;28;20108;-81
2021/11/20 10:06:08;;;;;;;11.90;9.45;;;;;;;14.32;53.11;99779.06;5051948;28;20047;-81
2021/11/20 10:08:38;;;;;;;14.07;10.10;;;;;;;13.93;53.20;99715.06;5051973;28;20071;-81
2021/11/20 10:11:09;;;;;;;17.60;11.35;;;;;;;14.41;53.20;99768.25;5050582;28;20037;-81
2021/11/20 10:14:16;;;;;;;17.33;11.70;;;;;;;14.45;52.75;99772.19;5051995;28;20409;-81
2021/11/20 10:16:49;;;;;;;14.25;10.85;;;;;;;14.36;52.79;99754.75;5029950;28;20040;-81
2021/11/20 10:19:25;;;;;;;12.20;9.77;;;;;;;14.55;52.70;99775.31;5029712;28;20445;-81
2021/11/20 10:22:20;;;;;;;12.05;9.38;;;;;;;14.54;52.58;99763.84;5043286;28;20037;-80
2021/11/20 10:25:01;;;;;;;11.45;9.95;;;;;;;14.39;52.36;99739.25;5051587;28;20041;-81
2021/11/20 10:27:39;;;;;;;12.53;9.23;;;;;;;14.56;51.94;99768.97;5051812;28;20118;-81
2021/11/20 10:30:10;;;;;;;13.57;9.43;;;;;;;14.53;52.14;99753.44;5051675;28;20029;-81
2021/11/20 10:33:15;;;;;;;12.75;8.88;;;;;;;14.33;51.92;99724.09;5049648;28;20047;-81
2021/11/20 10:36:05;;;;;;;10.88;8.25;;;;;;;14.45;51.71;99746.44;5051414;28;20044;-82
2021/11/20 10:38:39;;;;;;;10.90;8.48;;;;;;;14.46;52.17;99737.47;5050126;28;20127;-81
2021/11/20 10:41:04;;;;;;;11.70;8.55;;;;;;;14.45;52.17;99743.78;5051535;28;20037;-81
2021/11/20 10:43:34;;;;;;;11.32;8.65;;;;;;;14.41;52.16;99742.50;5051654;28;20032;-81
2021/11/20 10:46:03;;;;;;;10.38;8.48;;;;;;;14.35;52.36;99727.38;5051030;28;20108;-81
2021/11/20 10:48:34;;;;;;;19.15;11.38;;;;;;;14.29;52.53;99723.66;5051054;28;20410;-81
2021/11/20 10:51:12;;;;;;;14.43;9.93;;;;;;;14.24;52.64;99728.75;5050006;28;20033;-80
2021/11/20 10:54:02;;;;;;;12.77;9.63;;;;;;;14.27;52.73;99722.22;5049972;28;20033;-81
2021/11/20 10:56:39;;;;;;;27.70;9.82;;;;;;;14.26;52.58;99712.63;5051281;28;20490;-81
2021/11/20 10:59:38;;;;;;;14.13;9.18;;;;;;;14.18;52.11;99686.22;5039568;28;20056;-80
2021/11/20 11:02:33;;;;;;;15.43;10.45;;;;;;;14.50;52.14;99703.34;5039427;28;20060;-81
2021/11/20 11:05:20;;;;;;;10.35;8.73;;;;;;;14.64;51.53;99694.38;5045967;28;20241;-81
2021/11/20 11:07:59;;;;;;;12.90;8.93;;;;;;;14.77;51.51;99706.91;5030824;28;20028;-81
2021/11/20 11:10:34;;;;;;;11.52;8.38;;;;;;;14.90;51.17;99704.28;5031101;28;20029;-81
2021/11/20 11:13:09;;;;;;;11.88;8.30;;;;;;;14.44;51.15;99603.19;5031113;28;20025;-81
2021/11/20 11:15:54;;;;;;;8.77;7.60;;;;;;;15.03;50.51;99722.91;5030711;28;20021;-80
2021/11/20 11:18:35;;;;;;;10.45;7.85;;;;;;;15.09;50.49;99700.03;5031125;28;20036;-81
2021/11/20 11:21:00;;;;;;;9.73;7.35;;;;;;;15.13;50.32;99707.38;5031121;28;20052;-81
2021/11/20 11:24:10;;;;;;;10.05;8.13;;;;;;;14.56;49.71;99606.91;5029889;28;20029;-81
2021/11/20 11:26:50;;;;;;;10.35;7.80;;;;;;;14.78;50.37;99658.03;5024494;28;20076;-80
2021/11/20 11:29:33;;;;;;;8.57;7.13;;;;;;;15.15;50.01;99709.84;5030897;28;20029;-81
2021/11/20 11:31:58;;;;;;;7.78;6.97;;;;;;;15.13;50.36;99707.38;5031085;28;20104;-81
2021/11/20 11:34:33;;;;;;;10.50;7.13;;;;;;;15.13;50.53;99709.22;5030734;28;20116;-81
2021/11/20 11:37:06;;;;;;;11.52;6.47;;;;;;;14.36;50.10;99596.19;5030861;28;20030;-81
2021/11/20 11:39:47;;;;;;;7.78;6.30;;;;;;;15.16;50.01;99714.97;5029494;28;20465;-81
2021/11/20 11:42:36;;;;;;;6.82;5.63;;;;;;;15.14;49.20;99701.03;5030008;28;20072;-81